createdAt,value
2022-11-01T06:15:44.135Z,6.20
2022-11-01T06:25:44.050Z,6.63
2022-11-01T06:35:44.053Z,6.74
2022-11-01T06:45:44.051Z,11.17
2022-11-01T06:55:44.243Z,12.36
2022-11-01T07:05:44.206Z,7.97
2022-11-01T07:15:44.131Z,8.91
2022-11-01T07:25:44.114Z,11.03
2022-11-01T07:35:44.280Z,14.71
2022-11-01T07:45:44.243Z,14.57
2022-11-01T07:55:44.183Z,16.58
2022-11-01T08:05:44.191Z,14.56
2022-11-01T08:15:44.267Z,12.60
2022-11-01T08:25:44.209Z,12.28
2022-11-01T08:35:49.775Z,12.90
2022-11-01T08:45:44.241Z,15.39
2022-11-01T08:55:44.415Z,15.12
2022-11-01T09:05:44.444Z,9.74
2022-11-01T09:15:44.492Z,6.76
2022-11-01T09:25:44.454Z,10.80
2022-11-01T09:35:46.462Z,9.38
2022-11-01T09:45:44.375Z,7.80
2022-11-01T09:55:44.424Z,12.03
2022-11-01T10:05:44.324Z,11.38
2022-11-01T10:15:44.485Z,16.07
2022-11-01T10:25:44.254Z,13.40
2022-11-01T10:35:44.494Z,16.80
2022-11-01T10:45:47.631Z,18.81
2022-11-01T10:55:44.324Z,17.51
2022-11-01T11:05:44.414Z,22.01
2022-11-01T11:15:44.454Z,21.39
2022-11-01T11:25:44.409Z,18.30
2022-11-01T11:35:44.424Z,23.67
2022-11-01T11:45:44.351Z,26.20
2022-11-01T11:55:44.374Z,23.67
2022-11-01T12:05:44.478Z,15.98
2022-11-01T12:15:44.535Z,16.03
2022-11-01T12:25:44.455Z,19.83
2022-11-01T12:35:44.761Z,22.30
2022-11-01T12:45:44.528Z,21.30
2022-11-01T12:55:44.592Z,18.70
2022-11-01T13:05:44.455Z,18.12
2022-11-01T13:15:44.316Z,21.19
2022-11-01T13:25:44.517Z,15.29
2022-11-01T13:35:44.590Z,13.38
2022-11-01T13:45:44.720Z,14.51
2022-11-01T13:55:44.783Z,16.49
2022-11-01T14:05:44.865Z,10.68
2022-11-01T14:15:44.823Z,10.68
2022-11-01T14:25:44.788Z,7.55
2022-11-01T14:35:44.765Z,8.47
2022-11-01T14:45:44.881Z,8.40
2022-11-01T14:55:44.776Z,7.51
2022-11-01T15:05:44.641Z,5.33
2022-11-01T15:15:44.767Z,9.40
2022-11-01T15:25:44.829Z,8.94
2022-11-01T15:35:44.849Z,8.32
2022-11-01T15:45:44.908Z,8.47
2022-11-01T15:55:44.831Z,6.13
2022-11-01T16:05:44.916Z,6.89
2022-11-01T16:15:44.853Z,7.19
2022-11-01T16:25:44.910Z,6.37
2022-11-01T16:35:44.817Z,5.99
2022-11-01T16:45:44.886Z,6.00
2022-11-01T16:55:44.994Z,7.15
2022-11-01T17:05:44.955Z,8.36
2022-11-01T17:15:44.766Z,8.17
2022-11-01T17:25:44.889Z,7.31
2022-11-01T17:35:45.007Z,7.07
2022-11-01T17:45:44.753Z,5.97
2022-11-01T17:55:44.843Z,7.68
2022-11-01T18:05:44.819Z,7.76
2022-11-01T18:15:45.037Z,8.58
2022-11-01T18:25:45.082Z,9.33
2022-11-01T18:35:45.018Z,9.70
2022-11-01T18:46:04.840Z,10.87
2022-11-01T18:55:45.128Z,10.97
2022-11-01T19:05:45.117Z,11.30
2022-11-01T19:15:47.992Z,11.62
